createdAt,value
2022-10-02T00:00:07.717Z,16.50
2022-10-02T00:02:55.442Z,12.63
2022-10-02T00:05:36.105Z,16.00
2022-10-02T00:08:13.163Z,16.17
2022-10-02T00:10:59.283Z,19.73
2022-10-02T00:13:37.612Z,19.88
2022-10-02T00:18:39.760Z,19.60
2022-10-02T00:21:34.577Z,18.45
2022-10-02T00:24:07.781Z,17.38
2022-10-02T00:26:52.364Z,17.55
2022-10-02T00:32:28.827Z,18.02
2022-10-02T00:35:21.245Z,17.90
2022-10-02T00:38:12.683Z,17.98
2022-10-02T00:41:19.385Z,17.73
2022-10-02T00:44:26.055Z,16.67
2022-10-02T00:47:10.153Z,16.85
2022-10-02T00:50:20.312Z,15.05
2022-10-02T00:53:03.048Z,14.85
2022-10-02T00:55:57.194Z,14.25
2022-10-02T00:58:45.430Z,9.68
2022-10-02T01:01:19.785Z,10.57
2022-10-02T01:03:54.421Z,9.43
2022-10-02T01:06:27.375Z,7.90
2022-10-02T01:08:55.851Z,7.63
2022-10-02T01:11:27.034Z,6.80
2022-10-02T01:13:54.351Z,5.65
2022-10-02T01:16:21.147Z,5.45
2022-10-02T01:18:48.352Z,5.45
2022-10-02T01:21:30.787Z,5.43
2022-10-02T01:24:15.128Z,4.82
2022-10-02T01:26:42.460Z,4.63
2022-10-02T01:29:09.325Z,4.38
2022-10-02T01:31:36.454Z,4.72
2022-10-02T01:34:04.261Z,4.32
2022-10-02T01:36:31.595Z,4.70
2022-10-02T01:38:59.926Z,4.00
2022-10-02T01:41:28.443Z,4.00
2022-10-02T01:44:01.485Z,4.30
2022-10-02T01:47:05.033Z,4.03
2022-10-02T01:52:38.447Z,3.50
2022-10-02T01:55:32.766Z,4.75
2022-10-02T01:58:24.530Z,3.75
2022-10-02T02:01:00.397Z,4.93
2022-10-02T02:03:47.179Z,3.97
2022-10-02T02:06:55.906Z,4.45
2022-10-02T02:09:37.886Z,4.43
2022-10-02T02:12:15.313Z,2.97
2022-10-02T02:14:51.779Z,4.30
2022-10-02T02:17:34.189Z,4.82
2022-10-02T02:20:14.220Z,4.15
2022-10-02T02:22:51.749Z,3.88
2022-10-02T02:25:30.160Z,3.78
2022-10-02T02:28:04.925Z,3.28
2022-10-02T02:30:36.861Z,4.40
2022-10-02T02:33:14.576Z,4.35
2022-10-02T02:35:49.237Z,3.55
2022-10-02T02:38:27.739Z,3.45
2022-10-02T02:41:03.541Z,4.07
2022-10-02T02:43:44.473Z,3.63
2022-10-02T02:46:27.255Z,4.35
2022-10-02T02:49:13.359Z,4.18
2022-10-02T02:51:46.809Z,3.67
2022-10-02T02:54:54.998Z,4.38
2022-10-02T02:57:32.617Z,4.47
2022-10-02T03:00:02.420Z,3.90
2022-10-02T03:02:29.358Z,3.70
2022-10-02T03:04:56.091Z,4.10
2022-10-02T03:07:22.883Z,3.88
2022-10-02T03:10:45.718Z,3.70
2022-10-02T03:13:37.887Z,3.67
2022-10-02T03:16:56.832Z,4.65
2022-10-02T03:19:50.545Z,4.10
2022-10-02T03:23:14.373Z,4.05
2022-10-02T03:25:53.410Z,4.10
2022-10-02T03:28:58.839Z,3.45
2022-10-02T03:31:31.858Z,3.80
2022-10-02T03:34:02.398Z,4.13
2022-10-02T03:36:31.498Z,3.75
2022-10-02T03:41:50.148Z,3.50
2022-10-02T03:44:16.914Z,3.35
2022-10-02T03:46:43.704Z,4.05
2022-10-02T03:49:10.480Z,3.13
2022-10-02T03:51:37.386Z,3.05
2022-10-02T03:54:16.547Z,3.75
2022-10-02T03:57:08.292Z,4.18
2022-10-02T04:00:03.555Z,4.97
2022-10-02T04:02:44.666Z,2.72
2022-10-02T04:05:33.968Z,2.67
2022-10-02T04:08:19.317Z,3.08
2022-10-02T04:10:53.068Z,3.50
2022-10-02T04:13:32.141Z,2.92
2022-10-02T04:16:12.780Z,3.90
2022-10-02T04:18:55.527Z,3.30
2022-10-02T04:21:37.223Z,3.40
2022-10-02T04:24:44.569Z,2.90
2022-10-02T04:27:33.157Z,3.30
2022-10-02T04:30:06.825Z,2.50
2022-10-02T04:32:36.886Z,3.28
2022-10-02T04:35:14.976Z,2.78
2022-10-02T04:38:08.866Z,2.97
2022-10-02T04:41:13.837Z,2.67
2022-10-02T04:43:58.722Z,2.60
2022-10-02T04:46:49.312Z,2.58
2022-10-02T04:50:13.402Z,2.78
2022-10-02T04:53:18.132Z,3.25
2022-10-02T04:56:17.341Z,2.70
2022-10-02T04:59:11.160Z,2.22
2022-10-02T05:02:04.854Z,2.58
2022-10-02T05:05:08.305Z,3.05
2022-10-02T05:08:05.087Z,2.65
2022-10-02T05:11:08.553Z,3.00
2022-10-02T05:13:56.671Z,3.08
2022-10-02T05:16:33.335Z,3.85
2022-10-02T05:19:50.101Z,3.20
2022-10-02T05:22:46.383Z,3.45
2022-10-02T05:26:03.436Z,3.08
2022-10-02T05:28:48.763Z,3.67
2022-10-02T05:32:06.551Z,3.10
2022-10-02T05:35:01.053Z,3.75
2022-10-02T05:37:52.533Z,4.00
2022-10-02T05:40:43.435Z,4.95
2022-10-02T05:43:33.191Z,4.35
2022-10-02T05:46:10.242Z,4.63
2022-10-02T05:49:05.946Z,3.88
2022-10-02T05:52:04.607Z,4.38
2022-10-02T05:55:03.809Z,5.00
2022-10-02T05:57:51.656Z,4.90
2022-10-02T06:00:29.784Z,4.55
2022-10-02T06:04:00.055Z,4.63
2022-10-02T06:06:39.090Z,4.97
2022-10-02T06:09:20.644Z,5.63
2022-10-02T06:11:59.783Z,4.32
2022-10-02T06:14:49.845Z,5.93
2022-10-02T06:17:59.398Z,7.00
2022-10-02T06:20:37.746Z,6.90
2022-10-02T06:26:04.606Z,7.28
2022-10-02T06:28:43.999Z,9.45
2022-10-02T06:31:47.058Z,6.68
2022-10-02T06:34:15.313Z,8.32
2022-10-02T06:36:54.006Z,8.30
2022-10-02T06:39:57.767Z,8.48
2022-10-02T06:42:55.165Z,9.23
2022-10-02T06:46:12.804Z,7.80
2022-10-02T06:49:19.605Z,8.48
2022-10-02T06:52:25.620Z,9.23
2022-10-02T06:55:13.541Z,7.60
2022-10-02T06:58:08.175Z,7.50
2022-10-02T07:00:49.890Z,6.47
2022-10-02T07:03:56.554Z,5.93
2022-10-02T07:06:50.493Z,6.95
2022-10-02T07:09:29.394Z,5.88
2022-10-02T07:12:26.190Z,7.05
2022-10-02T07:15:37.667Z,6.90
2022-10-02T07:18:16.171Z,6.05
2022-10-02T07:24:11.312Z,4.38
2022-10-02T07:26:49.175Z,6.30
2022-10-02T07:29:56.532Z,4.43
2022-10-02T07:32:42.438Z,5.22
2022-10-02T07:35:36.964Z,4.63
2022-10-02T07:38:45.030Z,5.20
2022-10-02T07:41:37.545Z,6.63
2022-10-02T07:44:32.878Z,5.38
2022-10-02T07:47:21.539Z,5.72
2022-10-02T07:50:00.205Z,5.63
2022-10-02T07:53:02.916Z,4.88
2022-10-02T07:55:30.257Z,3.78
2022-10-02T07:58:06.337Z,6.00
2022-10-02T08:00:46.599Z,5.53
2022-10-02T08:03:24.468Z,4.40
2022-10-02T08:05:55.866Z,6.00
2022-10-02T08:08:39.252Z,5.18
2022-10-02T08:11:30.315Z,4.50
2022-10-02T08:14:07.387Z,4.05
2022-10-02T08:16:48.068Z,3.97
2022-10-02T08:19:21.951Z,5.10
2022-10-02T08:21:58.497Z,4.60
2022-10-02T08:24:44.984Z,4.95
2022-10-02T08:27:56.061Z,4.10
2022-10-02T08:30:22.858Z,4.88
2022-10-02T08:32:49.564Z,4.65
2022-10-02T08:35:19.741Z,4.88
2022-10-02T08:38:19.886Z,4.47
2022-10-02T08:41:15.977Z,3.72
2022-10-02T08:44:23.837Z,4.93
2022-10-02T08:46:58.219Z,4.10
2022-10-02T08:49:52.586Z,4.90
2022-10-02T08:52:37.538Z,4.40
2022-10-02T08:55:27.193Z,3.53
2022-10-02T08:58:21.473Z,3.70
2022-10-02T09:01:19.365Z,4.35
2022-10-02T09:04:32.333Z,4.20
2022-10-02T09:07:30.212Z,4.45
2022-10-02T09:10:27.422Z,3.83
2022-10-02T09:13:35.598Z,3.08
2022-10-02T09:16:24.286Z,3.50
2022-10-02T09:19:01.050Z,3.25
2022-10-02T09:21:51.712Z,3.22
2022-10-02T09:25:01.391Z,2.60
2022-10-02T09:30:47.870Z,2.55
2022-10-02T09:33:48.207Z,3.35
2022-10-02T09:36:54.962Z,2.92
2022-10-02T09:40:08.779Z,2.80
2022-10-02T09:43:17.442Z,3.05
2022-10-02T09:46:48.109Z,2.67
2022-10-02T09:50:05.679Z,2.75
2022-10-02T09:52:47.117Z,2.42
2022-10-02T09:55:58.714Z,2.53
2022-10-02T09:58:57.173Z,2.47
2022-10-02T10:02:03.772Z,2.67
2022-10-02T10:05:35.206Z,2.28
2022-10-02T10:08:29.763Z,2.25
2022-10-02T10:11:31.035Z,1.92
2022-10-02T10:14:37.844Z,2.53
2022-10-02T10:18:10.382Z,2.60
2022-10-02T10:21:09.414Z,2.95
2022-10-02T10:24:09.866Z,2.20
2022-10-02T10:27:21.320Z,2.38
2022-10-02T10:30:15.146Z,1.73
2022-10-02T10:33:34.457Z,2.20
2022-10-02T10:36:41.157Z,2.35
2022-10-02T10:39:47.253Z,2.20
2022-10-02T10:43:08.016Z,1.90
2022-10-02T10:46:11.431Z,2.92
2022-10-02T10:49:00.522Z,2.00
2022-10-02T10:51:41.676Z,2.95
2022-10-02T10:54:26.414Z,1.90
2022-10-02T10:57:22.258Z,2.55
2022-10-02T11:00:22.573Z,1.80
2022-10-02T11:03:11.133Z,2.20
2022-10-02T11:06:12.167Z,1.85
2022-10-02T11:09:09.559Z,1.77
2022-10-02T11:12:13.185Z,2.28
2022-10-02T11:14:54.507Z,1.80
2022-10-02T11:18:15.597Z,1.75
2022-10-02T11:21:59.330Z,1.70
2022-10-02T11:25:12.913Z,2.05
2022-10-02T11:28:01.188Z,2.40
2022-10-02T11:31:26.894Z,2.35
2022-10-02T11:34:27.613Z,2.17
2022-10-02T11:37:07.817Z,2.30
2022-10-02T11:39:59.217Z,2.45
2022-10-02T11:43:02.857Z,1.70
2022-10-02T11:45:55.561Z,1.63
2022-10-02T11:48:48.626Z,2.33
2022-10-02T11:51:27.493Z,2.45
2022-10-02T11:54:48.508Z,2.00
2022-10-02T11:58:16.379Z,2.20
2022-10-02T12:01:17.022Z,2.28
2022-10-02T12:03:57.161Z,2.08
2022-10-02T12:07:09.449Z,1.42
2022-10-02T12:10:10.439Z,1.92
2022-10-02T12:12:52.020Z,1.90
2022-10-02T12:15:26.609Z,1.85
2022-10-02T12:18:36.610Z,1.90
2022-10-02T12:21:43.533Z,1.15
2022-10-02T12:25:06.383Z,1.77
2022-10-02T12:28:12.359Z,1.88
2022-10-02T12:31:05.875Z,2.42
2022-10-02T12:33:52.998Z,2.05
2022-10-02T12:36:47.705Z,1.80
2022-10-02T12:39:22.110Z,1.90
2022-10-02T12:42:03.661Z,1.67
2022-10-02T12:45:22.958Z,1.83
2022-10-02T12:48:27.692Z,2.75
2022-10-02T12:51:21.281Z,1.60
2022-10-02T12:54:01.475Z,1.83
2022-10-02T12:57:36.627Z,2.33
2022-10-02T13:00:16.619Z,2.92
2022-10-02T13:03:25.175Z,2.33
2022-10-02T13:06:23.396Z,2.38
2022-10-02T13:09:30.562Z,1.75
2022-10-02T13:12:39.313Z,1.90
2022-10-02T13:15:44.661Z,1.83
2022-10-02T13:18:55.397Z,1.27
2022-10-02T13:21:39.241Z,1.70
2022-10-02T13:24:14.879Z,1.67
2022-10-02T13:27:06.344Z,1.50
2022-10-02T13:30:01.291Z,1.70
2022-10-02T13:33:06.127Z,1.77
2022-10-02T13:35:59.554Z,1.55
2022-10-02T13:38:52.710Z,1.60
2022-10-02T13:41:31.172Z,1.42
2022-10-02T13:44:16.036Z,1.40
2022-10-02T13:47:41.046Z,1.55
2022-10-02T13:50:46.449Z,1.75
2022-10-02T13:53:31.058Z,1.50
2022-10-02T13:56:20.800Z,1.67
2022-10-02T13:59:11.228Z,1.83
2022-10-02T14:02:25.813Z,1.33
2022-10-02T14:05:12.772Z,1.52
2022-10-02T14:07:51.169Z,1.63
2022-10-02T14:10:39.089Z,1.58
2022-10-02T14:13:30.963Z,1.42
2022-10-02T14:16:28.246Z,1.92
2022-10-02T14:19:11.194Z,1.80
2022-10-02T14:22:07.064Z,1.63
2022-10-02T14:25:03.806Z,1.75
2022-10-02T14:28:02.264Z,2.05
2022-10-02T14:31:29.102Z,1.35
2022-10-02T14:34:31.991Z,1.40
2022-10-02T14:37:24.256Z,1.30
2022-10-02T14:39:52.978Z,1.40
2022-10-02T14:42:51.125Z,1.60
2022-10-02T14:45:57.271Z,1.48
2022-10-02T14:49:06.625Z,1.25
2022-10-02T14:51:37.068Z,1.30
2022-10-02T14:54:42.184Z,1.23
2022-10-02T14:57:30.336Z,1.10
2022-10-02T15:00:09.397Z,1.10
2022-10-02T15:03:11.590Z,1.27
2022-10-02T15:06:00.170Z,1.23
2022-10-02T15:08:39.793Z,1.58
2022-10-02T15:11:22.701Z,1.20
2022-10-02T15:14:07.105Z,1.67
2022-10-02T15:17:05.906Z,1.42
2022-10-02T15:20:11.169Z,1.75
2022-10-02T15:23:18.121Z,1.70
2022-10-02T15:26:48.550Z,1.85
2022-10-02T15:29:44.806Z,1.67
2022-10-02T15:32:45.455Z,1.70
2022-10-02T15:35:21.123Z,1.77
2022-10-02T15:38:30.491Z,1.92
2022-10-02T15:44:27.415Z,1.33
2022-10-02T15:47:29.613Z,1.40
2022-10-02T15:50:29.449Z,1.20
2022-10-02T15:53:32.910Z,1.35
2022-10-02T15:56:31.847Z,1.17
2022-10-02T15:59:30.775Z,1.50
2022-10-02T16:02:06.638Z,1.90
2022-10-02T16:05:01.794Z,2.00
2022-10-02T16:07:56.540Z,1.23
2022-10-02T16:10:57.120Z,1.67
2022-10-02T16:13:47.469Z,1.80
2022-10-02T16:16:59.458Z,1.60
2022-10-02T16:19:56.053Z,1.40
2022-10-02T16:22:32.670Z,1.80
2022-10-02T16:25:28.929Z,1.70
2022-10-02T16:28:23.579Z,1.67
2022-10-02T16:30:50.313Z,2.78
2022-10-02T16:33:39.125Z,1.83
2022-10-02T16:36:31.839Z,1.50
2022-10-02T16:39:31.933Z,1.67
2022-10-02T16:42:12.051Z,1.80
2022-10-02T16:45:27.590Z,2.05
2022-10-02T16:48:42.835Z,1.75
2022-10-02T16:51:33.559Z,1.83
2022-10-02T16:54:23.230Z,1.95
2022-10-02T16:56:56.984Z,2.20
2022-10-02T16:59:28.288Z,1.60
2022-10-02T17:02:19.516Z,2.80
2022-10-02T17:05:02.033Z,1.90
2022-10-02T17:08:50.374Z,2.15
2022-10-02T17:11:38.093Z,2.20
2022-10-02T17:14:31.044Z,1.83
2022-10-02T17:17:08.562Z,2.78
2022-10-02T17:19:55.477Z,2.35
2022-10-02T17:22:41.597Z,2.42
2022-10-02T17:25:36.083Z,2.40
2022-10-02T17:28:08.754Z,3.20
2022-10-02T17:31:43.370Z,2.83
2022-10-02T17:34:21.013Z,1.95
2022-10-02T17:37:04.043Z,2.30
2022-10-02T17:39:55.012Z,2.33
2022-10-02T17:46:19.643Z,2.20
2022-10-02T17:49:30.141Z,2.45
2022-10-02T17:52:36.608Z,2.10
2022-10-02T17:55:43.308Z,2.30
2022-10-02T17:58:57.796Z,2.10
2022-10-02T18:01:36.861Z,2.78
2022-10-02T18:04:42.935Z,2.70
2022-10-02T18:08:06.600Z,2.38
2022-10-02T18:11:01.820Z,2.28
2022-10-02T18:14:37.231Z,2.63
2022-10-02T18:17:29.273Z,2.78
2022-10-02T18:20:34.784Z,2.40
2022-10-02T18:23:47.372Z,3.00
2022-10-02T18:26:26.181Z,2.10
2022-10-02T18:29:16.807Z,2.60
2022-10-02T18:32:20.973Z,2.33
2022-10-02T18:35:14.298Z,2.08
2022-10-02T18:38:22.459Z,2.20
2022-10-02T18:41:19.244Z,2.85
2022-10-02T18:44:45.109Z,2.83
2022-10-02T18:47:31.564Z,2.70
2022-10-02T18:50:16.580Z,2.50
2022-10-02T18:53:04.322Z,2.78
2022-10-02T18:55:56.551Z,2.63
2022-10-02T18:58:49.740Z,3.00
2022-10-02T19:04:52.011Z,3.40
2022-10-02T19:07:29.387Z,3.13
2022-10-02T19:10:47.922Z,3.60
2022-10-02T19:13:38.039Z,3.08
2022-10-02T19:16:23.048Z,4.03
2022-10-02T19:18:50.030Z,3.65
2022-10-02T19:21:21.695Z,3.80
2022-10-02T19:24:01.461Z,3.60
2022-10-02T19:26:34.903Z,4.35
2022-10-02T19:29:58.798Z,3.78
2022-10-02T19:32:41.235Z,3.30
2022-10-02T19:35:28.549Z,3.47
2022-10-02T19:38:09.601Z,4.28
2022-10-02T19:40:37.278Z,3.30
2022-10-02T19:43:31.014Z,3.58
2022-10-02T19:46:04.259Z,4.07
2022-10-02T19:48:33.214Z,3.65
2022-10-02T19:51:08.411Z,4.30
2022-10-02T19:53:50.575Z,3.60
2022-10-02T19:56:35.137Z,3.60
2022-10-02T19:59:41.790Z,4.45
2022-10-02T20:02:36.648Z,4.35
2022-10-02T20:05:11.401Z,3.88
2022-10-02T20:07:40.626Z,4.30
2022-10-02T20:11:06.035Z,4.28
2022-10-02T20:13:44.434Z,4.75
2022-10-02T20:19:08.818Z,4.97
2022-10-02T20:21:53.109Z,4.63
2022-10-02T20:24:35.825Z,5.13
2022-10-02T20:27:17.580Z,4.40
2022-10-02T20:29:54.869Z,4.90
2022-10-02T20:32:31.457Z,4.75
2022-10-02T20:35:06.293Z,4.10
2022-10-02T20:37:34.986Z,5.13
2022-10-02T20:40:13.360Z,3.90
2022-10-02T20:45:53.075Z,5.75
2022-10-02T20:49:13.002Z,4.50
2022-10-02T20:52:10.546Z,4.38
2022-10-02T20:54:40.930Z,4.65
2022-10-02T20:57:56.255Z,4.47
2022-10-02T21:00:28.825Z,4.43
2022-10-02T21:03:19.914Z,4.82
2022-10-02T21:09:06.124Z,4.72
2022-10-02T21:12:17.097Z,4.50
2022-10-02T21:14:55.781Z,4.28
2022-10-02T21:17:46.733Z,3.75
2022-10-02T21:23:55.631Z,4.28
2022-10-02T21:27:06.993Z,4.20
2022-10-02T21:30:16.893Z,4.32
2022-10-02T21:35:56.818Z,4.70
2022-10-02T21:38:50.279Z,4.50
2022-10-02T21:41:47.117Z,4.32
2022-10-02T21:45:04.419Z,3.78
2022-10-02T21:48:10.301Z,4.53
2022-10-02T21:50:58.402Z,4.30
2022-10-02T21:54:21.027Z,4.10
2022-10-02T21:57:27.362Z,4.05
2022-10-02T22:00:21.852Z,4.25
2022-10-02T22:03:20.764Z,4.43
2022-10-02T22:06:19.685Z,4.38
2022-10-02T22:09:30.428Z,4.35
2022-10-02T22:12:22.191Z,4.10
2022-10-02T22:15:08.702Z,4.45
2022-10-02T22:17:56.085Z,5.18
2022-10-02T22:20:53.567Z,4.10
2022-10-02T22:23:44.445Z,4.30
2022-10-02T22:26:23.352Z,4.30
2022-10-02T22:29:03.273Z,4.63
2022-10-02T22:32:40.792Z,4.90
2022-10-02T22:35:37.613Z,4.97
2022-10-02T22:38:22.367Z,4.47
2022-10-02T22:43:27.529Z,4.68
2022-10-02T22:46:09.527Z,4.30
2022-10-02T22:48:44.025Z,4.47
2022-10-02T22:51:31.124Z,4.38
2022-10-02T22:54:32.746Z,4.32
2022-10-02T22:57:02.404Z,4.00
2022-10-02T22:59:42.353Z,4.18
2022-10-02T23:02:19.861Z,4.57
2022-10-02T23:05:05.718Z,4.13
2022-10-02T23:07:50.997Z,4.65
2022-10-02T23:10:40.114Z,4.90
2022-10-02T23:13:09.847Z,4.65
2022-10-02T23:16:08.266Z,4.20
2022-10-02T23:18:40.829Z,4.35
2022-10-02T23:21:52.327Z,4.50
2022-10-02T23:24:44.500Z,3.97
2022-10-02T23:27:16.509Z,3.85
2022-10-02T23:30:05.082Z,3.88
2022-10-02T23:33:03.570Z,4.28
2022-10-02T23:35:55.722Z,3.55
2022-10-02T23:39:02.553Z,3.97
2022-10-02T23:41:46.430Z,4.63
2022-10-02T23:44:18.872Z,4.13
2022-10-02T23:46:48.851Z,4.18
2022-10-02T23:49:23.933Z,4.63
2022-10-02T23:52:31.780Z,4.22
2022-10-02T23:55:23.759Z,4.00
2022-10-02T23:58:29.221Z,4.78
